Terminal Aerodrome Forecast
Issued by NWS Pueblo, CO

Home | Current Version | Previous Version | Text Only | Print | Product List | Glossary On
Versions: 1 2 3 4 5 6 7 8 9 10 11 12 13 14 15 16 17 18 19
000
FTUS45 KPUB 280520
TAFALS
TAF
KALS 280520Z 2806/2906 VRB05KT P6SM SCT100
     FM281900 23012G22KT P6SM SCT100 SCT200
     FM282200 26012G22KT P6SM SCT080 BKN150
     FM290200 28008KT P6SM SCT080 BKN150=

USA.gov is the U.S. government's official web portal to all federal, state and local government web resources and services.